Time;durP1;ratioP1;P1;durP2;ratioP2;P2;SDS_P1;SDS_P2;PMS_P1;PMS_P2;Temp;Humidity;BMP_temperature;BMP_pressure;BME280_temperature;BME280_humidity;BME280_pressure;Samples;Min_cycle;Max_cycle;Signal;HPM_P1;HPM_P2
2023/07/30 00:01:35;;;;;;;12.83;11.83;;;18.40;99.90;;;;;;5035679;28;20203;-77
2023/07/30 00:04:02;;;;;;;10.40;9.60;;;18.30;99.90;;;;;;5053054;28;20571;-77
2023/07/30 00:06:29;;;;;;;14.00;13.00;;;18.30;99.90;;;;;;5053191;28;20202;-77
2023/07/30 00:08:57;;;;;;;14.43;13.50;;;18.30;99.90;;;;;;5053157;28;20278;-77
2023/07/30 00:11:24;;;;;;;13.27;12.17;;;18.30;99.90;;;;;;5035055;28;20210;-77
2023/07/30 00:13:51;;;;;;;13.60;12.60;;;18.30;99.90;;;;;;5034840;28;20792;-77
2023/07/30 00:16:17;;;;;;;13.90;12.80;;;18.30;99.90;;;;;;5053533;28;20201;-77
2023/07/30 00:18:45;;;;;;;13.83;12.93;;;18.30;99.90;;;;;;5037098;28;20193;-77
2023/07/30 00:21:12;;;;;;;12.73;11.83;;;18.30;99.90;;;;;;5034948;28;20683;-77
2023/07/30 00:23:38;;;;;;;13.33;12.43;;;18.30;99.90;;;;;;5035520;28;20196;-77
2023/07/30 00:26:07;;;;;;;13.63;12.73;;;18.30;99.90;;;;;;5039821;28;20671;-77
2023/07/30 00:28:33;;;;;;;13.50;12.60;;;18.40;99.90;;;;;;5054745;28;20257;-77
2023/07/30 00:31:00;;;;;;;12.10;11.20;;;18.40;99.90;;;;;;5034968;28;20207;-77
2023/07/30 00:33:27;;;;;;;14.27;13.33;;;18.40;99.90;;;;;;5035175;28;20204;-77
2023/07/30 00:35:54;;;;;;;13.07;12.17;;;18.40;99.90;;;;;;5034908;28;20249;-77
2023/07/30 00:38:21;;;;;;;12.27;11.47;;;18.40;99.90;;;;;;5038891;28;20202;-77
2023/07/30 00:40:48;;;;;;;13.60;12.70;;;18.40;99.90;;;;;;5034854;28;20184;-77
2023/07/30 00:43:16;;;;;;;13.23;12.33;;;18.40;99.90;;;;;;5034543;28;20198;-77
2023/07/30 00:45:45;;;;;;;12.90;12.00;;;18.30;99.90;;;;;;5036948;28;20732;-77
2023/07/30 00:48:13;;;;;;;13.23;12.33;;;18.30;99.90;;;;;;5038652;28;20209;-77
2023/07/30 00:50:41;;;;;;;12.90;12.10;;;18.30;99.90;;;;;;5056085;28;20207;-78
2023/07/30 00:53:11;;;;;;;12.77;11.97;;;18.30;99.90;;;;;;5056488;28;20200;-77
2023/07/30 00:55:38;;;;;;;12.67;11.87;;;18.30;99.90;;;;;;5046352;28;20221;-77
2023/07/30 00:58:05;;;;;;;12.77;11.97;;;18.20;99.90;;;;;;5040491;28;20200;-77
2023/07/30 01:00:33;;;;;;;13.47;12.57;;;18.20;99.90;;;;;;5064886;28;20594;-77
2023/07/30 01:03:01;;;;;;;12.27;11.37;;;18.20;99.90;;;;;;5056149;28;20195;-77
2023/07/30 01:05:27;;;;;;;13.37;12.47;;;18.30;99.90;;;;;;5037866;28;20233;-77
2023/07/30 01:07:54;;;;;;;12.43;11.70;;;18.30;99.90;;;;;;5056168;28;20197;-77
2023/07/30 01:10:22;;;;;;;11.80;10.90;;;18.40;99.90;;;;;;5038783;28;20283;-77
2023/07/30 01:12:49;;;;;;;12.00;11.30;;;18.40;99.90;;;;;;5038112;28;20195;-77
2023/07/30 01:15:17;;;;;;;12.87;11.77;;;18.40;99.90;;;;;;5037693;28;20765;-77
2023/07/30 01:17:46;;;;;;;11.83;11.13;;;18.40;99.90;;;;;;5037736;28;20200;-77
2023/07/30 01:20:13;;;;;;;10.73;10.03;;;18.40;99.90;;;;;;5037370;28;20638;-77
2023/07/30 01:22:41;;;;;;;9.20;8.50;;;18.40;99.90;;;;;;5063666;28;20200;-77
2023/07/30 01:25:08;;;;;;;12.60;11.80;;;18.50;99.90;;;;;;5038426;28;20220;-77
2023/07/30 01:27:40;;;;;;;15.70;14.60;;;18.50;99.90;;;;;;5037331;28;20216;-77
2023/07/30 01:30:13;;;;;;;11.93;11.17;;;18.50;99.90;;;;;;5039696;28;20262;-77
2023/07/30 01:32:41;;;;;;;12.20;11.40;;;18.40;99.90;;;;;;5053657;28;20223;-77
2023/07/30 01:35:09;;;;;;;12.20;11.40;;;18.40;99.90;;;;;;5048382;28;20224;-77
2023/07/30 01:37:37;;;;;;;12.03;11.23;;;18.40;99.90;;;;;;5074513;28;20202;-77
2023/07/30 01:40:08;;;;;;;11.90;11.20;;;18.40;99.90;;;;;;5039347;28;20246;-77
2023/07/30 01:42:35;;;;;;;12.00;11.20;;;18.40;99.90;;;;;;5040421;28;20227;-77
2023/07/30 01:45:02;;;;;;;12.17;11.37;;;18.30;99.90;;;;;;5037232;28;20581;-77
2023/07/30 01:47:28;;;;;;;12.10;11.30;;;18.30;99.90;;;;;;5036957;28;20195;-77
2023/07/30 01:49:55;;;;;;;12.90;12.00;;;18.30;99.90;;;;;;5036550;28;20226;-77
2023/07/30 01:52:22;;;;;;;12.60;11.63;;;18.20;99.90;;;;;;5054556;28;20220;-78
2023/07/30 01:54:49;;;;;;;12.13;11.33;;;18.10;99.90;;;;;;5037099;28;20214;-77
2023/07/30 01:57:17;;;;;;;9.47;8.87;;;18.00;99.90;;;;;;5036713;28;20202;-77
2023/07/30 01:59:44;;;;;;;11.60;10.80;;;18.00;99.90;;;;;;5042762;28;20198;-77
2023/07/30 02:02:11;;;;;;;13.00;12.10;;;17.90;99.90;;;;;;5036750;28;20195;-77
2023/07/30 02:04:38;;;;;;;6.97;5.40;;;17.80;99.90;;;;;;5054318;28;20219;-77
2023/07/30 02:07:05;;;;;;;5.70;5.20;;;17.70;99.90;;;;;;5054779;28;20199;-77
2023/07/30 02:09:32;;;;;;;7.37;6.77;;;17.70;99.90;;;;;;5036309;28;20230;-76
2023/07/30 02:12:01;;;;;;;14.00;13.13;;;17.60;99.90;;;;;;5036952;28;20288;-77
2023/07/30 02:14:30;;;;;;;10.40;9.70;;;17.60;99.90;;;;;;5054613;28;20207;-77
2023/07/30 02:17:01;;;;;;;13.20;12.40;;;17.60;99.90;;;;;;5036477;28;20203;-77
2023/07/30 02:19:27;;;;;;;12.33;11.53;;;17.50;99.90;;;;;;5039723;28;20195;-77
2023/07/30 02:21:54;;;;;;;13.80;12.90;;;17.50;99.90;;;;;;5036388;28;20207;-77
2023/07/30 02:24:21;;;;;;;12.93;12.03;;;17.50;99.90;;;;;;5036473;28;20216;-76
2023/07/30 02:26:48;;;;;;;12.93;12.03;;;17.50;99.90;;;;;;5039943;28;20194;-77
2023/07/30 02:29:15;;;;;;;12.80;12.00;;;17.40;99.90;;;;;;5043624;28;20269;-77
2023/07/30 02:31:43;;;;;;;13.80;12.90;;;17.40;99.90;;;;;;5035804;28;20211;-77
2023/07/30 02:34:10;;;;;;;13.30;12.50;;;17.40;99.90;;;;;;5035944;28;20235;-77
2023/07/30 02:36:37;;;;;;;12.70;11.90;;;17.40;99.90;;;;;;5036317;28;20274;-77
2023/07/30 02:39:04;;;;;;;12.33;11.60;;;17.40;99.90;;;;;;5035873;28;20665;-77
2023/07/30 02:41:30;;;;;;;12.53;11.77;;;17.30;99.90;;;;;;5054110;28;20199;-77
2023/07/30 02:43:57;;;;;;;12.60;11.80;;;17.40;99.90;;;;;;5035780;28;20243;-77
2023/07/30 02:46:24;;;;;;;14.40;13.40;;;17.30;99.90;;;;;;5036033;28;20206;-77
2023/07/30 02:48:53;;;;;;;12.77;11.90;;;17.30;99.90;;;;;;5039983;28;20645;-76
2023/07/30 02:51:19;;;;;;;13.13;12.23;;;17.30;99.90;;;;;;5044565;28;20219;-77
2023/07/30 02:53:46;;;;;;;13.17;12.30;;;17.40;99.90;;;;;;5059804;28;20717;-77
2023/07/30 02:56:13;;;;;;;12.60;11.80;;;17.40;99.90;;;;;;5040381;28;21201;-80
2023/07/30 02:58:40;;;;;;;11.87;11.17;;;17.30;99.90;;;;;;5047314;28;20209;-81
2023/07/30 03:01:08;;;;;;;4.70;4.30;;;17.30;99.90;;;;;;5041303;28;20195;-80
2023/07/30 03:03:35;;;;;;;5.47;5.07;;;17.30;99.90;;;;;;5054365;28;20260;-80
2023/07/30 03:06:03;;;;;;;6.73;6.23;;;17.20;99.90;;;;;;5047245;28;20244;-82
2023/07/30 03:08:30;;;;;;;7.03;6.53;;;17.20;99.90;;;;;;5051263;28;20697;-80
2023/07/30 03:10:59;;;;;;;11.90;11.20;;;17.10;99.90;;;;;;5053962;28;20240;-81
2023/07/30 03:13:26;;;;;;;12.10;11.30;;;17.10;99.90;;;;;;5047502;28;20197;-80
2023/07/30 03:15:53;;;;;;;12.53;11.73;;;17.00;99.90;;;;;;5067525;28;20212;-81
2023/07/30 03:18:19;;;;;;;12.27;11.37;;;17.00;99.90;;;;;;5058450;28;20206;-81
2023/07/30 03:20:46;;;;;;;11.80;11.10;;;17.00;99.90;;;;;;5065978;28;20665;-81
2023/07/30 03:23:14;;;;;;;11.70;11.00;;;17.00;99.90;;;;;;5068474;28;20577;-82
2023/07/30 03:25:41;;;;;;;12.07;11.37;;;17.00;99.90;;;;;;5050078;28;20333;-81
2023/07/30 03:28:08;;;;;;;12.57;11.77;;;17.00;99.90;;;;;;5054897;28;20748;-81
2023/07/30 03:30:35;;;;;;;12.67;11.90;;;17.00;99.90;;;;;;5058068;28;20222;-81
2023/07/30 03:33:02;;;;;;;12.50;11.70;;;17.00;99.90;;;;;;5066174;28;20604;-81
2023/07/30 03:35:28;;;;;;;12.47;11.67;;;17.00;99.90;;;;;;5075598;28;20222;-80
2023/07/30 03:37:55;;;;;;;12.13;11.43;;;17.10;99.90;;;;;;5063248;28;20199;-79
2023/07/30 03:40:25;;;;;;;12.70;11.90;;;17.10;99.90;;;;;;5049639;28;20271;-81
2023/07/30 03:42:53;;;;;;;12.80;12.00;;;17.10;99.90;;;;;;5056817;28;20273;-81
2023/07/30 03:45:20;;;;;;;13.17;12.33;;;17.20;99.90;;;;;;5043634;28;20215;-81
2023/07/30 03:47:46;;;;;;;12.73;11.90;;;17.20;99.90;;;;;;5054840;28;20271;-81
2023/07/30 03:50:13;;;;;;;12.47;11.70;;;17.20;99.90;;;;;;5047615;28;20226;-81
2023/07/30 03:52:40;;;;;;;11.87;11.17;;;17.20;99.90;;;;;;5049547;28;20199;-81
2023/07/30 03:55:09;;;;;;;9.83;9.13;;;17.30;99.90;;;;;;5047066;28;20256;-81
2023/07/30 03:57:37;;;;;;;7.47;6.70;;;17.20;99.90;;;;;;5054940;28;20203;-81
2023/07/30 04:00:05;;;;;;;8.13;7.63;;;17.20;99.90;;;;;;5050727;28;20212;-81
2023/07/30 04:02:41;;;;;;;7.10;6.60;;;17.20;99.90;;;;;;5075081;28;20262;-80
2023/07/30 04:05:08;;;;;;;10.27;9.60;;;17.20;99.90;;;;;;5052650;28;20226;-80
2023/07/30 04:07:35;;;;;;;11.00;10.40;;;17.30;99.90;;;;;;5037714;28;20992;-83
2023/07/30 04:10:02;;;;;;;11.33;10.63;;;17.30;99.90;;;;;;5041773;28;20214;-77
2023/07/30 04:12:29;;;;;;;11.73;11.03;;;17.30;99.90;;;;;;5060956;28;20191;-77
2023/07/30 04:14:57;;;;;;;11.77;10.97;;;17.40;99.90;;;;;;5043495;28;20225;-78
2023/07/30 04:17:24;;;;;;;11.00;10.40;;;17.40;99.90;;;;;;5051955;28;20230;-77
2023/07/30 04:19:51;;;;;;;12.10;11.20;;;17.50;99.90;;;;;;5071315;28;20212;-78
2023/07/30 04:22:18;;;;;;;11.63;10.93;;;17.50;99.90;;;;;;5054986;28;20195;-78
2023/07/30 04:24:44;;;;;;;11.43;10.73;;;17.50;99.90;;;;;;5045236;28;20275;-78
2023/07/30 04:27:11;;;;;;;11.27;10.60;;;17.60;99.90;;;;;;5049690;28;20750;-78
2023/07/30 04:29:38;;;;;;;11.57;10.87;;;17.60;99.90;;;;;;5074425;28;20236;-76
2023/07/30 04:32:08;;;;;;;7.63;7.10;;;17.60;99.90;;;;;;5051318;28;20196;-77
2023/07/30 04:34:34;;;;;;;11.90;11.10;;;17.70;99.90;;;;;;5055658;28;20572;-77
2023/07/30 04:37:02;;;;;;;4.13;3.83;;;17.70;99.90;;;;;;5045068;28;20190;-79
2023/07/30 04:39:30;;;;;;;4.00;3.70;;;17.70;99.90;;;;;;5056351;28;20205;-77
2023/07/30 04:41:57;;;;;;;4.47;4.17;;;17.70;99.90;;;;;;5071687;28;20193;-82
2023/07/30 04:44:24;;;;;;;5.30;4.90;;;17.70;99.90;;;;;;5056290;28;20310;-80
2023/07/30 04:46:54;;;;;;;11.93;11.23;;;17.70;99.90;;;;;;5066007;28;20218;-81
2023/07/30 04:49:25;;;;;;;6.80;6.30;;;17.70;99.90;;;;;;5048012;28;20264;-78
2023/07/30 04:51:52;;;;;;;11.73;11.03;;;17.70;99.90;;;;;;5047411;28;20225;-77
2023/07/30 04:54:19;;;;;;;11.07;10.37;;;17.80;99.90;;;;;;5064866;28;20268;-76
2023/07/30 04:56:46;;;;;;;12.60;11.80;;;17.80;99.90;;;;;;5045381;28;20266;-77
2023/07/30 04:59:13;;;;;;;6.80;6.30;;;17.80;99.90;;;;;;5046749;28;20195;-78
2023/07/30 05:01:39;;;;;;;5.60;5.20;;;17.80;99.90;;;;;;5067670;28;20191;-77
2023/07/30 05:04:06;;;;;;;11.90;11.20;;;17.80;99.90;;;;;;5065111;28;20223;-77
2023/07/30 05:06:34;;;;;;;8.40;7.80;;;17.90;99.90;;;;;;5065611;28;20206;-78
2023/07/30 05:09:01;;;;;;;10.90;10.20;;;17.90;99.90;;;;;;5069109;28;20248;-78
2023/07/30 05:11:28;;;;;;;11.30;10.60;;;18.00;99.90;;;;;;5046142;28;20282;-77
2023/07/30 05:13:55;;;;;;;11.67;10.97;;;18.10;99.90;;;;;;5068794;28;20218;-77
2023/07/30 05:16:21;;;;;;;10.63;10.00;;;18.30;99.90;;;;;;5063507;28;20688;-78
2023/07/30 05:18:48;;;;;;;8.97;8.40;;;18.50;99.90;;;;;;5050091;28;20249;-78
2023/07/30 05:21:15;;;;;;;6.03;5.53;;;18.60;99.90;;;;;;5060279;28;20224;-76
2023/07/30 05:23:43;;;;;;;4.43;4.03;;;18.60;99.90;;;;;;5054045;28;20227;-78
2023/07/30 05:26:10;;;;;;;4.23;3.90;;;18.80;99.90;;;;;;5051646;28;20251;-77
2023/07/30 05:28:37;;;;;;;12.70;11.87;;;18.70;99.90;;;;;;5064046;28;20622;-77
2023/07/30 05:31:03;;;;;;;9.87;9.27;;;18.80;99.90;;;;;;5058184;28;20249;-78
2023/07/30 05:33:30;;;;;;;4.30;3.90;;;18.80;99.90;;;;;;5051402;28;20579;-78
2023/07/30 05:35:57;;;;;;;3.73;3.43;;;19.00;99.90;;;;;;5045506;28;20206;-77
2023/07/30 05:38:24;;;;;;;3.90;3.60;;;19.00;99.90;;;;;;5072157;28;20253;-77
2023/07/30 05:40:52;;;;;;;4.33;3.77;;;19.10;99.90;;;;;;5045376;28;20213;-77
2023/07/30 05:43:19;;;;;;;5.10;3.87;;;19.20;99.90;;;;;;5067926;28;20704;-78
2023/07/30 05:45:45;;;;;;;4.30;3.90;;;19.30;99.90;;;;;;5073520;28;20636;-77
2023/07/30 05:48:12;;;;;;;3.90;3.60;;;19.30;99.90;;;;;;5048839;28;20239;-77
2023/07/30 05:50:39;;;;;;;3.97;3.67;;;19.40;99.90;;;;;;5070551;28;20218;-77
2023/07/30 05:53:06;;;;;;;4.00;3.70;;;19.50;99.90;;;;;;5060828;28;20190;-78
2023/07/30 05:55:33;;;;;;;3.60;3.40;;;19.60;99.90;;;;;;5055827;28;20216;-78
2023/07/30 05:58:01;;;;;;;4.13;3.83;;;19.80;99.90;;;;;;5048439;28;20226;-81
2023/07/30 06:00:28;;;;;;;4.60;4.20;;;20.10;99.90;;;;;;5042329;28;20194;-81
2023/07/30 06:02:57;;;;;;;4.60;4.20;;;20.40;99.90;;;;;;5074339;28;20202;-84
2023/07/30 06:05:24;;;;;;;8.80;8.10;;;20.70;99.90;;;;;;5063911;28;20742;-82
2023/07/30 06:07:51;;;;;;;4.80;4.30;;;21.10;99.90;;;;;;5037794;28;20739;-83
2023/07/30 06:10:17;;;;;;;4.07;3.67;;;21.30;99.90;;;;;;5055390;28;20196;-82
2023/07/30 06:12:44;;;;;;;6.03;5.47;;;21.40;99.90;;;;;;5055810;28;20196;-83
2023/07/30 06:15:12;;;;;;;4.00;3.70;;;21.40;99.90;;;;;;5041078;28;20226;-82
2023/07/30 06:17:39;;;;;;;9.23;8.53;;;21.30;99.90;;;;;;5032372;28;20400;-81
2023/07/30 06:20:13;;;;;;;8.40;7.80;;;21.10;99.90;;;;;;5066948;28;20198;-80
2023/07/30 06:22:39;;;;;;;6.70;6.10;;;20.90;99.90;;;;;;5045362;28;20200;-78
2023/07/30 06:25:07;;;;;;;6.43;6.03;;;20.70;99.90;;;;;;5059317;28;20272;-77
2023/07/30 06:27:33;;;;;;;5.60;5.20;;;20.60;99.90;;;;;;5063056;28;20207;-78
2023/07/30 06:30:04;;;;;;;8.37;5.20;;;20.50;99.90;;;;;;5066667;28;20195;-81
2023/07/30 06:32:32;;;;;;;8.57;8.07;;;20.60;99.90;;;;;;5044565;28;20222;-77
2023/07/30 06:34:59;;;;;;;9.17;8.57;;;20.70;99.90;;;;;;5053308;28;20221;-78
2023/07/30 06:37:26;;;;;;;6.47;5.97;;;21.00;99.90;;;;;;5070889;28;20195;-82
2023/07/30 06:39:53;;;;;;;6.67;6.20;;;21.30;99.90;;;;;;5055822;28;20570;-83
2023/07/30 06:42:19;;;;;;;7.23;5.90;;;21.50;99.90;;;;;;5071273;28;20198;-77
2023/07/30 06:44:46;;;;;;;6.30;5.80;;;21.40;99.90;;;;;;5071736;28;20264;-78
2023/07/30 06:47:13;;;;;;;6.87;6.43;;;21.30;99.90;;;;;;5071641;28;20664;-78
2023/07/30 06:49:41;;;;;;;8.27;7.77;;;21.20;99.90;;;;;;5064644;28;20198;-78
2023/07/30 06:52:08;;;;;;;8.97;8.37;;;21.20;99.90;;;;;;5073039;28;20235;-78
2023/07/30 06:54:35;;;;;;;8.40;7.80;;;21.40;99.90;;;;;;5048109;28;20230;-78
2023/07/30 06:57:02;;;;;;;7.77;7.17;;;22.00;99.90;;;;;;5054111;28;20207;-78
2023/07/30 06:59:29;;;;;;;5.67;5.27;;;22.80;99.90;;;;;;5065619;28;20195;-78
2023/07/30 07:01:55;;;;;;;5.50;4.87;;;23.50;99.90;;;;;;5066811;28;20188;-78
2023/07/30 07:04:22;;;;;;;5.27;4.87;;;24.10;99.90;;;;;;5053209;28;20214;-77
2023/07/30 07:06:50;;;;;;;7.43;6.93;;;24.60;99.90;;;;;;5049062;28;20203;-77
2023/07/30 07:09:17;;;;;;;6.73;6.33;;;24.60;99.90;;;;;;5074180;28;20194;-78
2023/07/30 07:11:47;;;;;;;5.23;4.93;;;24.60;99.90;;;;;;5057940;28;20237;-84
2023/07/30 07:14:14;;;;;;;3.70;3.43;;;24.60;99.90;;;;;;5077353;28;20210;-82
2023/07/30 07:16:41;;;;;;;4.70;3.40;;;24.20;99.90;;;;;;5063831;28;20831;-81
2023/07/30 07:19:08;;;;;;;4.47;4.17;;;23.90;99.90;;;;;;5078042;28;20276;-82
2023/07/30 07:21:58;;;;;;;7.23;6.73;;;23.60;99.90;;;;;;5069452;28;20426;-82
2023/07/30 07:24:36;;;;;;;4.47;3.30;;;23.30;99.90;;;;;;5047637;28;20285;-80
2023/07/30 07:27:12;;;;;;;3.50;3.20;;;23.00;99.90;;;;;;5063292;28;20263;-84
2023/07/30 07:29:41;;;;;;;3.00;2.80;;;22.80;99.90;;;;;;5052077;28;20206;-82
2023/07/30 07:32:09;;;;;;;5.77;5.37;;;22.60;99.90;;;;;;5077090;28;20599;-82
2023/07/30 07:34:35;;;;;;;7.60;7.10;;;22.60;99.90;;;;;;5062722;28;20226;-82
2023/07/30 07:37:07;;;;;;;4.97;4.40;;;22.50;99.90;;;;;;5046231;28;20222;-82
2023/07/30 07:39:34;;;;;;;4.13;3.70;;;22.30;99.90;;;;;;5061126;28;20664;-81
2023/07/30 07:42:00;;;;;;;6.53;6.03;;;22.20;99.90;;;;;;5051216;28;20265;-83
2023/07/30 07:44:27;;;;;;;7.00;6.40;;;21.80;99.90;;;;;;5039278;28;20234;-82
2023/07/30 07:46:54;;;;;;;5.07;4.57;;;21.30;99.90;;;;;;5052733;28;20279;-82
2023/07/30 07:49:21;;;;;;;6.60;3.13;;;21.00;99.90;;;;;;5053451;28;20405;-82
2023/07/30 07:51:48;;;;;;;3.13;2.83;;;20.50;99.90;;;;;;5051152;28;20214;-82
2023/07/30 07:54:16;;;;;;;3.93;3.63;;;20.10;99.90;;;;;;5124915;22;20336;-82
2023/07/30 07:56:57;;;;;;;3.43;3.13;;;20.00;99.90;;;;;;5071319;28;20191;-82
2023/07/30 07:59:44;;;;;;;6.70;6.30;;;20.00;99.90;;;;;;5076168;28;20240;-82
2023/07/30 08:02:33;;;;;;;7.17;6.67;;;20.10;99.90;;;;;;5070826;28;20186;-81
2023/07/30 08:05:03;;;;;;;2.93;2.73;;;20.10;99.90;;;;;;5066207;28;20232;-81
2023/07/30 08:07:30;;;;;;;3.03;2.83;;;20.20;99.90;;;;;;5063267;28;20569;-82
2023/07/30 08:10:02;;;;;;;3.37;3.00;;;20.20;99.90;;;;;;5067097;28;20192;-82
2023/07/30 08:12:29;;;;;;;4.90;4.50;;;20.20;99.90;;;;;;5075939;28;20271;-82
2023/07/30 08:14:58;;;;;;;3.20;2.90;;;20.40;99.90;;;;;;5078337;28;20238;-83
2023/07/30 08:17:28;;;;;;;3.10;2.80;;;20.80;99.90;;;;;;5075230;28;20190;-83
2023/07/30 08:19:55;;;;;;;4.47;4.17;;;21.20;99.90;;;;;;5081069;28;20225;-83
2023/07/30 08:22:21;;;;;;;4.83;4.53;;;21.80;99.90;;;;;;5069797;28;20199;-82
2023/07/30 08:24:48;;;;;;;5.83;5.33;;;22.60;99.90;;;;;;5073371;28;20213;-82
2023/07/30 08:27:17;;;;;;;4.53;4.13;;;23.20;99.90;;;;;;5073746;28;20199;-82
2023/07/30 08:29:44;;;;;;;3.10;2.90;;;23.30;99.90;;;;;;5073888;28;20212;-82
2023/07/30 08:32:11;;;;;;;3.03;2.83;;;23.40;99.90;;;;;;5062610;28;20222;-82
2023/07/30 08:34:39;;;;;;;3.33;3.10;;;23.50;99.90;;;;;;5060682;28;20219;-82
2023/07/30 08:37:05;;;;;;;5.47;4.97;;;23.50;99.90;;;;;;5063369;28;20198;-82
2023/07/30 08:39:32;;;;;;;4.73;4.43;;;23.80;99.90;;;;;;5075140;28;20197;-83
2023/07/30 08:41:59;;;;;;;5.90;5.50;;;23.90;99.90;;;;;;5065396;28;20245;-81
2023/07/30 08:44:27;;;;;;;5.03;4.63;;;24.10;99.90;;;;;;5068993;28;20640;-82
2023/07/30 08:46:55;;;;;;;3.90;3.70;;;24.00;99.90;;;;;;5063255;28;20202;-81
2023/07/30 08:49:22;;;;;;;4.20;3.40;;;24.00;99.90;;;;;;5068471;28;20244;-81
2023/07/30 08:51:52;;;;;;;3.47;3.17;;;24.00;99.90;;;;;;5064133;28;20212;-81
2023/07/30 08:54:21;;;;;;;3.10;2.90;;;23.90;99.90;;;;;;5064982;28;20696;-81
2023/07/30 08:56:49;;;;;;;3.40;3.10;;;24.10;99.90;;;;;;5059114;28;20195;-81
2023/07/30 08:59:23;;;;;;;2.90;2.70;;;24.50;99.90;;;;;;5071398;28;20199;-83
2023/07/30 09:01:53;;;;;;;2.80;2.60;;;24.50;99.90;;;;;;5061479;28;20196;-82
2023/07/30 09:04:20;;;;;;;4.47;3.70;;;24.80;99.90;;;;;;5059683;28;20305;-82
2023/07/30 09:06:49;;;;;;;3.13;2.93;;;25.20;99.90;;;;;;5069504;28;20687;-83
2023/07/30 09:09:17;;;;;;;3.00;2.80;;;25.10;99.90;;;;;;5066817;28;20237;-82
2023/07/30 09:11:43;;;;;;;3.00;2.80;;;24.90;99.90;;;;;;5075257;28;20215;-81
2023/07/30 09:14:11;;;;;;;3.17;2.90;;;24.50;99.90;;;;;;5068585;28;20263;-81
2023/07/30 09:16:37;;;;;;;2.80;2.60;;;24.30;99.90;;;;;;5068850;28;20210;-81
2023/07/30 09:19:08;;;;;;;3.33;3.03;;;24.10;99.90;;;;;;5066713;28;20319;-82
2023/07/30 09:21:35;;;;;;;4.23;3.83;;;23.90;99.90;;;;;;5065268;28;20876;-81
2023/07/30 09:24:05;;;;;;;3.57;3.33;;;23.60;99.90;;;;;;5065492;28;20219;-81
2023/07/30 09:26:42;;;;;;;3.40;3.10;;;23.30;99.90;;;;;;5076261;28;20289;-80
2023/07/30 09:29:10;;;;;;;3.70;3.50;;;23.00;99.90;;;;;;5061773;28;20203;-81
2023/07/30 09:31:46;;;;;;;4.70;4.40;;;22.90;99.90;;;;;;5071835;28;20226;-81
2023/07/30 09:34:18;;;;;;;4.87;4.57;;;22.60;99.90;;;;;;5071599;28;20218;-80
2023/07/30 09:36:46;;;;;;;7.90;7.40;;;22.30;99.90;;;;;;5065992;28;20230;-80
2023/07/30 09:39:16;;;;;;;8.97;8.47;;;22.10;99.90;;;;;;5069866;28;20219;-79
2023/07/30 09:41:43;;;;;;;8.90;8.30;;;21.90;99.90;;;;;;5075067;28;20585;-80
2023/07/30 09:44:11;;;;;;;3.33;3.03;;;21.90;99.90;;;;;;5061780;28;20223;-81
2023/07/30 09:46:43;;;;;;;7.67;7.27;;;22.00;99.90;;;;;;5071742;28;20573;-80
2023/07/30 09:49:10;;;;;;;8.10;7.60;;;22.00;99.90;;;;;;5066378;28;20203;-80
2023/07/30 09:51:39;;;;;;;7.90;7.40;;;22.10;99.90;;;;;;5056323;28;20233;-80
2023/07/30 09:54:08;;;;;;;8.17;7.60;;;22.10;99.90;;;;;;5061561;28;20222;-80
2023/07/30 09:56:35;;;;;;;7.30;6.90;;;22.00;99.90;;;;;;5072823;28;20273;-80
2023/07/30 09:59:02;;;;;;;8.07;7.57;;;22.20;99.90;;;;;;5064517;28;20261;-80
2023/07/30 10:01:30;;;;;;;8.70;8.10;;;22.20;99.90;;;;;;5063443;28;20218;-81
2023/07/30 10:03:58;;;;;;;9.33;8.73;;;22.40;99.90;;;;;;5061343;28;20273;-80
2023/07/30 10:06:27;;;;;;;8.77;8.27;;;22.80;99.90;;;;;;5055540;28;20233;-80
2023/07/30 10:08:59;;;;;;;3.10;2.90;;;22.90;99.90;;;;;;5069455;28;20198;-80
2023/07/30 10:11:30;;;;;;;5.73;4.13;;;23.00;99.90;;;;;;5054152;28;20273;-83
2023/07/30 10:13:57;;;;;;;3.77;3.57;;;22.90;99.90;;;;;;5068232;28;20226;-80
2023/07/30 10:16:27;;;;;;;3.87;2.90;;;22.90;99.90;;;;;;5067861;28;20654;-81
2023/07/30 10:18:57;;;;;;;6.47;5.90;;;23.00;99.90;;;;;;5056607;28;20652;-80
2023/07/30 10:21:25;;;;;;;4.57;4.17;;;23.00;99.90;;;;;;5070449;28;20194;-80
2023/07/30 10:24:01;;;;;;;3.50;3.20;;;23.00;99.90;;;;;;5060371;28;20218;-81
2023/07/30 10:26:29;;;;;;;2.73;2.53;;;23.00;99.90;;;;;;5062955;28;20194;-79
2023/07/30 10:29:16;;;;;;;4.97;4.67;;;23.10;99.90;;;;;;5066593;28;20210;-81
2023/07/30 10:31:45;;;;;;;7.57;7.07;;;22.90;99.90;;;;;;5059549;28;20230;-80
2023/07/30 10:34:12;;;;;;;5.07;4.70;;;23.10;99.90;;;;;;5055410;28;20222;-80
2023/07/30 10:36:44;;;;;;;5.63;5.13;;;23.40;99.90;;;;;;5056375;28;20207;-80
2023/07/30 10:39:17;;;;;;;8.07;7.57;;;23.50;99.90;;;;;;5063381;28;20579;-80
2023/07/30 10:41:45;;;;;;;8.50;7.90;;;23.70;99.90;;;;;;5060539;28;20244;-80
2023/07/30 10:44:22;;;;;;;8.07;7.57;;;23.60;99.90;;;;;;5065691;28;20219;-80
2023/07/30 10:46:49;;;;;;;7.80;7.30;;;23.60;99.90;;;;;;5068307;28;20669;-80
2023/07/30 10:49:16;;;;;;;2.93;2.70;;;23.70;99.90;;;;;;5063133;28;20187;-79
2023/07/30 10:51:42;;;;;;;7.37;6.77;;;23.70;99.90;;;;;;5073435;28;20689;-81
2023/07/30 10:54:09;;;;;;;6.50;6.00;;;23.70;99.90;;;;;;5072780;28;20230;-80
2023/07/30 10:56:38;;;;;;;7.63;7.13;;;23.50;99.90;;;;;;5068273;28;20225;-81
2023/07/30 10:59:07;;;;;;;8.43;7.83;;;23.90;99.90;;;;;;5066108;28;20199;-80
2023/07/30 11:01:37;;;;;;;7.40;7.00;;;24.40;99.90;;;;;;5062617;28;20221;-81
2023/07/30 11:04:07;;;;;;;6.37;5.87;;;24.80;99.90;;;;;;5073832;28;20704;-83
2023/07/30 11:06:34;;;;;;;5.37;4.60;;;25.00;99.90;;;;;;5063017;28;20669;-80
2023/07/30 11:09:01;;;;;;;6.50;6.10;;;25.00;99.90;;;;;;5064307;28;20198;-79
2023/07/30 11:11:28;;;;;;;4.73;4.43;;;25.00;99.90;;;;;;5057791;28;20201;-81
2023/07/30 11:13:57;;;;;;;4.03;3.70;;;25.10;99.90;;;;;;5071831;28;20226;-82
2023/07/30 11:16:24;;;;;;;4.90;4.60;;;25.10;99.90;;;;;;5059830;28;20203;-82
2023/07/30 11:18:51;;;;;;;6.97;6.50;;;25.10;99.90;;;;;;5073215;28;20207;-82
2023/07/30 11:21:19;;;;;;;7.50;6.93;;;24.90;99.90;;;;;;5063845;28;20194;-83
2023/07/30 11:23:46;;;;;;;7.00;6.50;;;24.40;99.90;;;;;;5063972;28;20211;-81
2023/07/30 11:26:16;;;;;;;3.70;3.40;;;24.10;99.90;;;;;;5055107;28;20199;-83
2023/07/30 11:28:43;;;;;;;7.40;6.77;;;23.90;99.90;;;;;;5055576;28;20222;-81
2023/07/30 11:31:13;;;;;;;6.43;5.80;;;23.70;99.90;;;;;;5063377;28;20249;-83
2023/07/30 11:33:41;;;;;;;6.83;6.33;;;23.50;99.90;;;;;;5064682;28;20273;-80
2023/07/30 11:36:10;;;;;;;6.83;6.43;;;23.50;99.90;;;;;;5055845;28;20199;-81
2023/07/30 11:38:39;;;;;;;8.23;7.63;;;23.80;99.90;;;;;;5058791;28;20195;-82
2023/07/30 11:41:09;;;;;;;7.80;7.20;;;24.00;99.90;;;;;;5062345;28;20203;-83
2023/07/30 11:43:38;;;;;;;7.03;6.50;;;24.10;99.90;;;;;;5064425;28;20203;-82
2023/07/30 11:46:11;;;;;;;5.90;5.40;;;24.20;99.90;;;;;;5054747;28;20657;-82
2023/07/30 11:48:39;;;;;;;6.23;5.73;;;24.30;99.90;;;;;;5057042;28;20206;-81
2023/07/30 11:51:06;;;;;;;7.60;7.10;;;24.30;99.90;;;;;;5061406;28;20198;-81
2023/07/30 11:53:47;;;;;;;7.40;6.90;;;24.40;99.90;;;;;;5069106;28;20225;-83
2023/07/30 11:56:24;;;;;;;5.00;4.60;;;24.70;99.90;;;;;;5058593;28;20519;-82
2023/07/30 11:58:54;;;;;;;5.90;5.47;;;24.80;99.90;;;;;;5063775;28;20262;-82
2023/07/30 12:01:25;;;;;;;5.50;5.10;;;24.90;99.90;;;;;;5062788;28;20337;-83
2023/07/30 12:03:54;;;;;;;6.07;5.57;;;25.00;99.90;;;;;;5064055;28;20689;-82
2023/07/30 12:06:21;;;;;;;6.47;5.97;;;24.80;99.90;;;;;;5059916;28;20203;-83
2023/07/30 12:08:50;;;;;;;5.97;5.47;;;24.60;99.90;;;;;;5062326;28;20665;-82
2023/07/30 12:11:19;;;;;;;5.90;5.50;;;24.30;99.90;;;;;;5058930;28;20386;-82
2023/07/30 12:13:46;;;;;;;5.53;5.10;;;24.40;99.90;;;;;;5060019;28;20314;-81
2023/07/30 12:16:14;;;;;;;5.00;4.70;;;24.70;99.90;;;;;;5069033;28;20650;-82
2023/07/30 12:18:42;;;;;;;5.40;5.00;;;25.10;99.90;;;;;;5069396;28;20195;-81
2023/07/30 12:21:11;;;;;;;6.20;4.80;;;25.30;99.90;;;;;;5068572;28;20580;-81
2023/07/30 12:23:38;;;;;;;5.27;4.77;;;25.20;99.90;;;;;;5072687;28;20187;-81
2023/07/30 12:26:05;;;;;;;8.60;7.93;;;25.10;99.90;;;;;;5062961;28;20195;-81
2023/07/30 12:28:33;;;;;;;7.77;7.17;;;25.20;99.90;;;;;;5062269;28;20190;-80
2023/07/30 12:30:59;;;;;;;7.77;7.23;;;25.10;99.90;;;;;;5062713;28;20241;-81
2023/07/30 12:33:26;;;;;;;7.87;7.10;;;24.90;99.90;;;;;;5067845;28;20218;-81
2023/07/30 12:35:54;;;;;;;7.10;6.60;;;24.90;99.90;;;;;;5064991;28;20206;-79
2023/07/30 12:38:21;;;;;;;8.30;7.70;;;24.80;99.90;;;;;;5064977;28;20203;-81
2023/07/30 12:40:48;;;;;;;7.40;6.70;;;24.80;99.90;;;;;;5061458;28;20202;-82
2023/07/30 12:43:15;;;;;;;6.97;6.53;;;24.60;99.90;;;;;;5057923;28;20202;-82
2023/07/30 12:45:42;;;;;;;5.63;5.23;;;24.70;99.90;;;;;;5076981;28;20214;-82